GEML

Details ICAO GEML (MLN)
Name MELILLA
Region Ceuta and Melilla
Timezone Africa/Casablanca (UTC+0.0)
Plans Departing 53
Arriving 55
Stats Elevation 156 ft / 48 m (AMSL)
Location 35.280374° -2.956708°
Runways 1
Magnetic Variation 0.407° W
Sunrise 2018-05-20 05:05:42 UTC / 2018-05-20 05:05:42 Local
Sunset 2018-05-20 19:13:51 UTC / 2018-05-20 19:13:51 Local
Advertisement - Login to hide

Runways

ID Width Length Bearing (true) Bearing (mag) Surface Threshold Offset Overrun Length
15 148 ft / 45 m 4,811 ft / 1,466 m 146.39° 146.80° Asphalt 755 ft / 230 m 0 ft / 0 m
33 148 ft / 45 m 4,811 ft / 1,466 m 326.40° 326.81° Asphalt 0 ft / 0 m 0 ft / 0 m

Map

Weather


0- 5 10 15 20 25 30 35+ Temperature / ° C

Clouds and Precipitation
Forecast for 2018-05-20 18:00 UTC. Updated 5 hours ago

Ground ~20,000 ft ~40,000 ft Winds

METAR

GEML 202230Z AUTO VRB01KT 9999 FEW016/// 18/15 Q1014

TAF

TAF GEML 202000Z 2021/2121 08006KT 9999 FEW015 TX22/2112Z TN15/2105Z PROB40 TEMPO 2103/2109 BKN012

Frequencies

Ground 121.70 MHz GND
Tower 118.50 MHz TWR
Warning: Do not use this data for real-world aviation or navigation. No guarantee of current accuracy is given.